sensor_id;sensor_type;location;lat;lon;timestamp;P1;durP1;ratioP1;P2;durP2;ratioP2
7523;SDS011;3803;51.666;7.630;2022-11-04T00:00:14;5.63;;;4.20;;
7523;SDS011;3803;51.666;7.630;2022-11-04T00:00:35;5.10;;;4.20;;
7523;SDS011;3803;51.666;7.630;2022-11-04T00:01:01;6.10;;;4.20;;
7523;SDS011;3803;51.666;7.630;2022-11-04T00:01:23;5.80;;;4.20;;
7523;SDS011;3803;51.666;7.630;2022-11-04T00:01:44;5.13;;;4.20;;
7523;SDS011;3803;51.666;7.630;2022-11-04T00:02:06;4.93;;;4.15;;
7523;SDS011;3803;51.666;7.630;2022-11-04T00:02:26;4.60;;;4.10;;
7523;SDS011;3803;51.666;7.630;2022-11-04T00:02:47;4.60;;;4.20;;
7523;SDS011;3803;51.666;7.630;2022-11-04T00:03:07;5.03;;;4.43;;
7523;SDS011;3803;51.666;7.630;2022-11-04T00:03:28;5.25;;;4.30;;
7523;SDS011;3803;51.666;7.630;2022-11-04T00:03:49;4.90;;;4.10;;
7523;SDS011;3803;51.666;7.630;2022-11-04T00:04:10;4.50;;;4.07;;
7523;SDS011;3803;51.666;7.630;2022-11-04T00:04:31;5.10;;;4.10;;
7523;SDS011;3803;51.666;7.630;2022-11-04T00:04:52;5.35;;;4.20;;
7523;SDS011;3803;51.666;7.630;2022-11-04T00:05:12;5.25;;;4.00;;
7523;SDS011;3803;51.666;7.630;2022-11-04T00:05:33;4.87;;;4.00;;
7523;SDS011;3803;51.666;7.630;2022-11-04T00:05:54;5.30;;;4.07;;
7523;SDS011;3803;51.666;7.630;2022-11-04T00:06:14;4.50;;;3.90;;
7523;SDS011;3803;51.666;7.630;2022-11-04T00:06:35;4.18;;;3.78;;
7523;SDS011;3803;51.666;7.630;2022-11-04T00:06:56;3.78;;;3.47;;
7523;SDS011;3803;51.666;7.630;2022-11-04T00:07:17;3.80;;;3.50;;
7523;SDS011;3803;51.666;7.630;2022-11-04T00:07:57;5.15;;;3.47;;
7523;SDS011;3803;51.666;7.630;2022-11-04T00:08:36;6.05;;;3.35;;
7523;SDS011;3803;51.666;7.630;2022-11-04T00:09:17;4.90;;;3.40;;
7523;SDS011;3803;51.666;7.630;2022-11-04T00:09:41;3.80;;;3.40;;
7523;SDS011;3803;51.666;7.630;2022-11-04T00:10:12;3.90;;;3.20;;
7523;SDS011;3803;51.666;7.630;2022-11-04T00:10:32;3.70;;;3.30;;
7523;SDS011;3803;51.666;7.630;2022-11-04T00:11:12;4.25;;;3.40;;
7523;SDS011;3803;51.666;7.630;2022-11-04T00:11:51;3.90;;;3.40;;
7523;SDS011;3803;51.666;7.630;2022-11-04T00:12:31;3.25;;;2.95;;
7523;SDS011;3803;51.666;7.630;2022-11-04T00:12:51;3.20;;;2.90;;
7523;SDS011;3803;51.666;7.630;2022-11-04T00:13:12;3.80;;;3.00;;
7523;SDS011;3803;51.666;7.630;2022-11-04T00:13:32;3.33;;;2.88;;
7523;SDS011;3803;51.666;7.630;2022-11-04T00:13:53;3.33;;;2.80;;
7523;SDS011;3803;51.666;7.630;2022-11-04T00:14:14;3.20;;;2.50;;
7523;SDS011;3803;51.666;7.630;2022-11-04T00:14:35;3.65;;;2.58;;
7523;SDS011;3803;51.666;7.630;2022-11-04T00:14:56;3.10;;;2.80;;
7523;SDS011;3803;51.666;7.630;2022-11-04T00:15:37;2.92;;;2.72;;
7523;SDS011;3803;51.666;7.630;2022-11-04T00:16:16;2.40;;;2.20;;
7523;SDS011;3803;51.666;7.630;2022-11-04T00:16:55;2.40;;;2.20;;
7523;SDS011;3803;51.666;7.630;2022-11-04T00:17:35;2.20;;;2.10;;
7523;SDS011;3803;51.666;7.630;2022-11-04T00:17:58;2.40;;;2.20;;
7523;SDS011;3803;51.666;7.630;2022-11-04T00:18:19;2.53;;;2.30;;
7523;SDS011;3803;51.666;7.630;2022-11-04T00:18:39;3.08;;;2.60;;
7523;SDS011;3803;51.666;7.630;2022-11-04T00:19:00;2.70;;;2.50;;
7523;SDS011;3803;51.666;7.630;2022-11-04T00:19:22;2.95;;;2.45;;
7523;SDS011;3803;51.666;7.630;2022-11-04T00:19:43;2.67;;;2.30;;
7523;SDS011;3803;51.666;7.630;2022-11-04T00:21:39;2.40;;;2.20;;
7523;SDS011;3803;51.666;7.630;2022-11-04T00:22:19;2.40;;;2.20;;
7523;SDS011;3803;51.666;7.630;2022-11-04T00:22:57;4.05;;;2.40;;
7523;SDS011;3803;51.666;7.630;2022-11-04T00:23:36;4.57;;;2.55;;
7523;SDS011;3803;51.666;7.630;2022-11-04T00:24:16;2.72;;;2.30;;
7523;SDS011;3803;51.666;7.630;2022-11-04T00:24:55;2.85;;;2.55;;
7523;SDS011;3803;51.666;7.630;2022-11-04T00:25:34;3.28;;;2.50;;
7523;SDS011;3803;51.666;7.630;2022-11-04T00:26:13;2.88;;;2.58;;
7523;SDS011;3803;51.666;7.630;2022-11-04T00:26:52;2.85;;;2.58;;
7523;SDS011;3803;51.666;7.630;2022-11-04T00:27:31;3.10;;;2.80;;
7523;SDS011;3803;51.666;7.630;2022-11-04T00:28:11;3.10;;;2.50;;
7523;SDS011;3803;51.666;7.630;2022-11-04T00:28:50;3.55;;;2.47;;
7523;SDS011;3803;51.666;7.630;2022-11-04T00:29:13;3.08;;;2.50;;
7523;SDS011;3803;51.666;7.630;2022-11-04T00:29:33;3.37;;;2.70;;
7523;SDS011;3803;51.666;7.630;2022-11-04T00:29:54;2.80;;;2.60;;
7523;SDS011;3803;51.666;7.630;2022-11-04T00:30:15;4.17;;;2.70;;
7523;SDS011;3803;51.666;7.630;2022-11-04T00:30:35;4.00;;;2.72;;
7523;SDS011;3803;51.666;7.630;2022-11-04T00:30:56;4.40;;;2.90;;
7523;SDS011;3803;51.666;7.630;2022-11-04T00:31:38;2.90;;;2.70;;
7523;SDS011;3803;51.666;7.630;2022-11-04T00:32:17;2.80;;;2.60;;
7523;SDS011;3803;51.666;7.630;2022-11-04T00:32:56;3.22;;;2.70;;
7523;SDS011;3803;51.666;7.630;2022-11-04T00:33:35;3.25;;;2.72;;
7523;SDS011;3803;51.666;7.630;2022-11-04T00:33:57;3.15;;;2.80;;
7523;SDS011;3803;51.666;7.630;2022-11-04T00:34:17;3.47;;;2.70;;
7523;SDS011;3803;51.666;7.630;2022-11-04T00:34:38;3.37;;;2.63;;
7523;SDS011;3803;51.666;7.630;2022-11-04T00:34:58;2.83;;;2.50;;
7523;SDS011;3803;51.666;7.630;2022-11-04T00:35:19;2.60;;;2.40;;
7523;SDS011;3803;51.666;7.630;2022-11-04T00:35:47;2.60;;;2.40;;
7523;SDS011;3803;51.666;7.630;2022-11-04T00:36:08;2.50;;;2.30;;
7523;SDS011;3803;51.666;7.630;2022-11-04T00:36:29;2.50;;;2.30;;
7523;SDS011;3803;51.666;7.630;2022-11-04T00:36:49;2.42;;;2.20;;
7523;SDS011;3803;51.666;7.630;2022-11-04T00:37:10;2.60;;;2.22;;
7523;SDS011;3803;51.666;7.630;2022-11-04T00:37:30;2.97;;;2.30;;
7523;SDS011;3803;51.666;7.630;2022-11-04T00:37:51;2.95;;;2.50;;
7523;SDS011;3803;51.666;7.630;2022-11-04T00:38:11;3.20;;;2.60;;
7523;SDS011;3803;51.666;7.630;2022-11-04T00:38:32;2.67;;;2.33;;
7523;SDS011;3803;51.666;7.630;2022-11-04T00:38:53;2.80;;;2.50;;
7523;SDS011;3803;51.666;7.630;2022-11-04T00:39:15;2.65;;;2.42;;
7523;SDS011;3803;51.666;7.630;2022-11-04T00:39:35;3.33;;;2.47;;
7523;SDS011;3803;51.666;7.630;2022-11-04T00:39:56;3.40;;;2.25;;
7523;SDS011;3803;51.666;7.630;2022-11-04T00:40:16;3.05;;;2.20;;
7523;SDS011;3803;51.666;7.630;2022-11-04T00:40:37;2.57;;;2.10;;
7523;SDS011;3803;51.666;7.630;2022-11-04T00:40:58;2.30;;;2.10;;
7523;SDS011;3803;51.666;7.630;2022-11-04T00:41:18;2.00;;;1.90;;
7523;SDS011;3803;51.666;7.630;2022-11-04T00:41:45;2.10;;;2.00;;
7523;SDS011;3803;51.666;7.630;2022-11-04T00:42:05;2.10;;;2.00;;
7523;SDS011;3803;51.666;7.630;2022-11-04T00:42:26;2.30;;;2.10;;
7523;SDS011;3803;51.666;7.630;2022-11-04T00:42:46;2.22;;;2.03;;
7523;SDS011;3803;51.666;7.630;2022-11-04T00:43:07;2.47;;;2.10;;
7523;SDS011;3803;51.666;7.630;2022-11-04T00:43:28;2.40;;;2.20;;
7523;SDS011;3803;51.666;7.630;2022-11-04T00:43:48;2.30;;;2.10;;
7523;SDS011;3803;51.666;7.630;2022-11-04T00:44:09;2.63;;;2.20;;
7523;SDS011;3803;51.666;7.630;2022-11-04T00:44:29;3.50;;;2.50;;
7523;SDS011;3803;51.666;7.630;2022-11-04T00:44:50;4.07;;;2.65;;
7523;SDS011;3803;51.666;7.630;2022-11-04T00:45:10;3.50;;;2.60;;
7523;SDS011;3803;51.666;7.630;2022-11-04T00:45:31;3.35;;;2.50;;
7523;SDS011;3803;51.666;7.630;2022-11-04T00:45:52;3.67;;;2.70;;
7523;SDS011;3803;51.666;7.630;2022-11-04T00:46:13;4.10;;;2.80;;
7523;SDS011;3803;51.666;7.630;2022-11-04T00:46:33;4.17;;;2.63;;
7523;SDS011;3803;51.666;7.630;2022-11-04T00:46:54;3.67;;;2.40;;
7523;SDS011;3803;51.666;7.630;2022-11-04T00:47:14;3.25;;;2.40;;
7523;SDS011;3803;51.666;7.630;2022-11-04T00:47:35;2.90;;;2.60;;
7523;SDS011;3803;51.666;7.630;2022-11-04T00:47:56;2.95;;;2.60;;
7523;SDS011;3803;51.666;7.630;2022-11-04T00:48:16;2.80;;;2.50;;
7523;SDS011;3803;51.666;7.630;2022-11-04T00:48:37;2.93;;;2.63;;
7523;SDS011;3803;51.666;7.630;2022-11-04T00:48:57;3.00;;;2.70;;
7523;SDS011;3803;51.666;7.630;2022-11-04T00:49:18;3.67;;;2.70;;
7523;SDS011;3803;51.666;7.630;2022-11-04T00:49:39;4.80;;;2.70;;
7523;SDS011;3803;51.666;7.630;2022-11-04T00:49:59;5.60;;;2.70;;
7523;SDS011;3803;51.666;7.630;2022-11-04T00:50:20;4.60;;;2.78;;
7523;SDS011;3803;51.666;7.630;2022-11-04T00:50:41;3.13;;;2.60;;
7523;SDS011;3803;51.666;7.630;2022-11-04T00:51:01;3.30;;;2.90;;
7523;SDS011;3803;51.666;7.630;2022-11-04T00:51:31;3.45;;;3.00;;
7523;SDS011;3803;51.666;7.630;2022-11-04T00:51:51;3.30;;;2.85;;
7523;SDS011;3803;51.666;7.630;2022-11-04T00:52:12;2.97;;;2.67;;
7523;SDS011;3803;51.666;7.630;2022-11-04T00:52:33;3.00;;;2.67;;
7523;SDS011;3803;51.666;7.630;2022-11-04T00:53:00;2.80;;;2.50;;
7523;SDS011;3803;51.666;7.630;2022-11-04T00:53:21;3.30;;;2.72;;
7523;SDS011;3803;51.666;7.630;2022-11-04T00:53:41;2.90;;;2.60;;
7523;SDS011;3803;51.666;7.630;2022-11-04T00:54:02;3.33;;;2.63;;
7523;SDS011;3803;51.666;7.630;2022-11-04T00:54:23;2.80;;;2.30;;
7523;SDS011;3803;51.666;7.630;2022-11-04T00:54:43;2.97;;;2.33;;
7523;SDS011;3803;51.666;7.630;2022-11-04T00:55:04;2.70;;;2.40;;
7523;SDS011;3803;51.666;7.630;2022-11-04T00:55:25;2.78;;;2.30;;
7523;SDS011;3803;51.666;7.630;2022-11-04T00:55:46;2.50;;;2.30;;
7523;SDS011;3803;51.666;7.630;2022-11-04T00:56:07;2.30;;;2.10;;
7523;SDS011;3803;51.666;7.630;2022-11-04T00:56:27;3.08;;;2.38;;
7523;SDS011;3803;51.666;7.630;2022-11-04T00:56:48;3.60;;;2.30;;
7523;SDS011;3803;51.666;7.630;2022-11-04T00:57:09;3.70;;;2.20;;
7523;SDS011;3803;51.666;7.630;2022-11-04T00:57:33;2.20;;;2.00;;
7523;SDS011;3803;51.666;7.630;2022-11-04T00:57:54;2.20;;;2.00;;
7523;SDS011;3803;51.666;7.630;2022-11-04T00:58:15;2.38;;;2.17;;
7523;SDS011;3803;51.666;7.630;2022-11-04T00:58:35;2.93;;;2.20;;
7523;SDS011;3803;51.666;7.630;2022-11-04T00:59:08;2.67;;;2.10;;
7523;SDS011;3803;51.666;7.630;2022-11-04T00:59:29;2.13;;;1.90;;
7523;SDS011;3803;51.666;7.630;2022-11-04T00:59:50;1.83;;;1.73;;
7523;SDS011;3803;51.666;7.630;2022-11-04T01:00:11;1.90;;;1.80;;
7523;SDS011;3803;51.666;7.630;2022-11-04T01:00:32;2.00;;;1.90;;
7523;SDS011;3803;51.666;7.630;2022-11-04T01:00:52;2.10;;;2.00;;
7523;SDS011;3803;51.666;7.630;2022-11-04T01:01:14;2.43;;;1.97;;
7523;SDS011;3803;51.666;7.630;2022-11-04T01:01:38;2.55;;;1.90;;
7523;SDS011;3803;51.666;7.630;2022-11-04T01:01:59;2.30;;;2.10;;
7523;SDS011;3803;51.666;7.630;2022-11-04T01:02:20;3.23;;;2.20;;
7523;SDS011;3803;51.666;7.630;2022-11-04T01:02:40;3.13;;;2.10;;
7523;SDS011;3803;51.666;7.630;2022-11-04T01:03:01;3.10;;;2.10;;
7523;SDS011;3803;51.666;7.630;2022-11-04T01:03:21;2.20;;;2.00;;
7523;SDS011;3803;51.666;7.630;2022-11-04T01:03:42;2.40;;;2.20;;
7523;SDS011;3803;51.666;7.630;2022-11-04T01:04:04;2.40;;;2.20;;
7523;SDS011;3803;51.666;7.630;2022-11-04T01:04:24;2.50;;;2.30;;
7523;SDS011;3803;51.666;7.630;2022-11-04T01:04:45;2.70;;;2.25;;
7523;SDS011;3803;51.666;7.630;2022-11-04T01:05:06;3.95;;;2.30;;
7523;SDS011;3803;51.666;7.630;2022-11-04T01:05:27;3.58;;;2.15;;
7523;SDS011;3803;51.666;7.630;2022-11-04T01:05:47;2.45;;;2.15;;
7523;SDS011;3803;51.666;7.630;2022-11-04T01:06:08;2.40;;;2.20;;
7523;SDS011;3803;51.666;7.630;2022-11-04T01:06:29;2.70;;;2.38;;
7523;SDS011;3803;51.666;7.630;2022-11-04T01:06:49;2.83;;;2.50;;
7523;SDS011;3803;51.666;7.630;2022-11-04T01:07:10;2.85;;;2.45;;
7523;SDS011;3803;51.666;7.630;2022-11-04T01:07:31;2.57;;;2.33;;
7523;SDS011;3803;51.666;7.630;2022-11-04T01:08:02;2.75;;;2.22;;
7523;SDS011;3803;51.666;7.630;2022-11-04T01:08:22;2.75;;;2.30;;
7523;SDS011;3803;51.666;7.630;2022-11-04T01:08:43;2.60;;;2.33;;
7523;SDS011;3803;51.666;7.630;2022-11-04T01:09:05;2.50;;;2.30;;
7523;SDS011;3803;51.666;7.630;2022-11-04T01:09:27;2.47;;;2.28;;
7523;SDS011;3803;51.666;7.630;2022-11-04T01:09:48;2.30;;;2.10;;
7523;SDS011;3803;51.666;7.630;2022-11-04T01:10:09;2.63;;;2.20;;
7523;SDS011;3803;51.666;7.630;2022-11-04T01:10:30;2.30;;;2.10;;
7523;SDS011;3803;51.666;7.630;2022-11-04T01:10:50;2.40;;;2.10;;
7523;SDS011;3803;51.666;7.630;2022-11-04T01:11:11;2.30;;;2.10;;
7523;SDS011;3803;51.666;7.630;2022-11-04T01:11:33;2.50;;;2.30;;
7523;SDS011;3803;51.666;7.630;2022-11-04T01:11:53;2.60;;;2.35;;
7523;SDS011;3803;51.666;7.630;2022-11-04T01:12:14;3.05;;;2.60;;
7523;SDS011;3803;51.666;7.630;2022-11-04T01:12:36;2.78;;;2.58;;
7523;SDS011;3803;51.666;7.630;2022-11-04T01:12:56;2.60;;;2.40;;
7523;SDS011;3803;51.666;7.630;2022-11-04T01:13:17;2.33;;;2.20;;
7523;SDS011;3803;51.666;7.630;2022-11-04T01:13:37;2.40;;;2.20;;
7523;SDS011;3803;51.666;7.630;2022-11-04T01:13:58;2.50;;;2.30;;
7523;SDS011;3803;51.666;7.630;2022-11-04T01:14:19;2.80;;;2.60;;
7523;SDS011;3803;51.666;7.630;2022-11-04T01:14:40;2.80;;;2.50;;
7523;SDS011;3803;51.666;7.630;2022-11-04T01:15:00;2.70;;;2.33;;
7523;SDS011;3803;51.666;7.630;2022-11-04T01:15:21;2.40;;;2.17;;
7523;SDS011;3803;51.666;7.630;2022-11-04T01:15:42;2.70;;;2.10;;
7523;SDS011;3803;51.666;7.630;2022-11-04T01:16:04;4.00;;;2.13;;
7523;SDS011;3803;51.666;7.630;2022-11-04T01:16:26;4.28;;;2.35;;
7523;SDS011;3803;51.666;7.630;2022-11-04T01:16:49;3.72;;;2.30;;
7523;SDS011;3803;51.666;7.630;2022-11-04T01:17:10;2.58;;;2.20;;
7523;SDS011;3803;51.666;7.630;2022-11-04T01:17:31;2.40;;;2.20;;
7523;SDS011;3803;51.666;7.630;2022-11-04T01:17:51;2.67;;;2.47;;
7523;SDS011;3803;51.666;7.630;2022-11-04T01:18:12;2.78;;;2.58;;
7523;SDS011;3803;51.666;7.630;2022-11-04T01:18:32;3.97;;;2.57;;
7523;SDS011;3803;51.666;7.630;2022-11-04T01:18:53;3.97;;;2.50;;
7523;SDS011;3803;51.666;7.630;2022-11-04T01:19:14;3.75;;;2.50;;
7523;SDS011;3803;51.666;7.630;2022-11-04T01:19:35;3.10;;;2.50;;
7523;SDS011;3803;51.666;7.630;2022-11-04T01:19:56;2.90;;;2.50;;
7523;SDS011;3803;51.666;7.630;2022-11-04T01:20:16;3.13;;;2.60;;
7523;SDS011;3803;51.666;7.630;2022-11-04T01:20:37;2.80;;;2.60;;
7523;SDS011;3803;51.666;7.630;2022-11-04T01:21:07;3.70;;;2.70;;
7523;SDS011;3803;51.666;7.630;2022-11-04T01:21:29;3.50;;;2.80;;
7523;SDS011;3803;51.666;7.630;2022-11-04T01:21:51;3.22;;;2.80;;
7523;SDS011;3803;51.666;7.630;2022-11-04T01:22:12;3.40;;;3.05;;
7523;SDS011;3803;51.666;7.630;2022-11-04T01:22:32;3.22;;;2.92;;
7523;SDS011;3803;51.666;7.630;2022-11-04T01:22:53;3.10;;;2.80;;
7523;SDS011;3803;51.666;7.630;2022-11-04T01:23:13;3.60;;;2.80;;
7523;SDS011;3803;51.666;7.630;2022-11-04T01:23:34;4.07;;;2.73;;
7523;SDS011;3803;51.666;7.630;2022-11-04T01:23:55;4.50;;;2.80;;
7523;SDS011;3803;51.666;7.630;2022-11-04T01:24:16;3.65;;;2.70;;
7523;SDS011;3803;51.666;7.630;2022-11-04T01:24:36;3.80;;;2.70;;
7523;SDS011;3803;51.666;7.630;2022-11-04T01:24:57;3.70;;;2.85;;
7523;SDS011;3803;51.666;7.630;2022-11-04T01:25:17;3.90;;;3.10;;
7523;SDS011;3803;51.666;7.630;2022-11-04T01:25:38;4.07;;;3.25;;
7523;SDS011;3803;51.666;7.630;2022-11-04T01:26:00;3.25;;;2.88;;
7523;SDS011;3803;51.666;7.630;2022-11-04T01:26:24;2.65;;;2.45;;
7523;SDS011;3803;51.666;7.630;2022-11-04T01:26:46;3.00;;;2.50;;
7523;SDS011;3803;51.666;7.630;2022-11-04T01:27:07;3.28;;;2.60;;
7523;SDS011;3803;51.666;7.630;2022-11-04T01:27:28;3.20;;;2.60;;
7523;SDS011;3803;51.666;7.630;2022-11-04T01:27:48;3.10;;;2.90;;
7523;SDS011;3803;51.666;7.630;2022-11-04T01:28:09;3.00;;;2.80;;
7523;SDS011;3803;51.666;7.630;2022-11-04T01:28:29;3.42;;;3.17;;
7523;SDS011;3803;51.666;7.630;2022-11-04T01:28:50;3.47;;;3.00;;
7523;SDS011;3803;51.666;7.630;2022-11-04T01:29:13;3.70;;;3.13;;
7523;SDS011;3803;51.666;7.630;2022-11-04T01:29:34;3.40;;;2.90;;
7523;SDS011;3803;51.666;7.630;2022-11-04T01:29:54;3.08;;;2.88;;
7523;SDS011;3803;51.666;7.630;2022-11-04T01:30:15;3.25;;;2.70;;
7523;SDS011;3803;51.666;7.630;2022-11-04T01:30:38;3.23;;;2.60;;
7523;SDS011;3803;51.666;7.630;2022-11-04T01:31:03;3.30;;;2.53;;
7523;SDS011;3803;51.666;7.630;2022-11-04T01:31:29;3.10;;;2.80;;
7523;SDS011;3803;51.666;7.630;2022-11-04T01:31:51;3.00;;;2.70;;
7523;SDS011;3803;51.666;7.630;2022-11-04T01:32:11;3.17;;;2.88;;
7523;SDS011;3803;51.666;7.630;2022-11-04T01:32:32;2.80;;;2.60;;
7523;SDS011;3803;51.666;7.630;2022-11-04T01:32:53;2.95;;;2.75;;
7523;SDS011;3803;51.666;7.630;2022-11-04T01:33:13;3.27;;;2.60;;
7523;SDS011;3803;51.666;7.630;2022-11-04T01:33:34;4.68;;;2.60;;
7523;SDS011;3803;51.666;7.630;2022-11-04T01:33:55;5.20;;;2.70;;
7523;SDS011;3803;51.666;7.630;2022-11-04T01:34:17;4.72;;;3.10;;
7523;SDS011;3803;51.666;7.630;2022-11-04T01:34:38;3.83;;;3.00;;
7523;SDS011;3803;51.666;7.630;2022-11-04T01:34:58;3.47;;;2.70;;
7523;SDS011;3803;51.666;7.630;2022-11-04T01:35:19;3.07;;;2.47;;
7523;SDS011;3803;51.666;7.630;2022-11-04T01:35:39;2.67;;;2.45;;
7523;SDS011;3803;51.666;7.630;2022-11-04T01:36:00;2.90;;;2.60;;
7523;SDS011;3803;51.666;7.630;2022-11-04T01:36:22;2.88;;;2.60;;
7523;SDS011;3803;51.666;7.630;2022-11-04T01:36:43;2.80;;;2.60;;
7523;SDS011;3803;51.666;7.630;2022-11-04T01:37:03;2.80;;;2.60;;
7523;SDS011;3803;51.666;7.630;2022-11-04T01:37:24;2.60;;;2.40;;
7523;SDS011;3803;51.666;7.630;2022-11-04T01:37:44;2.50;;;2.30;;
7523;SDS011;3803;51.666;7.630;2022-11-04T01:38:05;2.50;;;2.30;;
7523;SDS011;3803;51.666;7.630;2022-11-04T01:38:25;2.50;;;2.30;;
7523;SDS011;3803;51.666;7.630;2022-11-04T01:38:47;2.75;;;2.50;;
7523;SDS011;3803;51.666;7.630;2022-11-04T01:39:08;3.03;;;2.70;;
7523;SDS011;3803;51.666;7.630;2022-11-04T01:39:30;3.75;;;2.95;;
7523;SDS011;3803;51.666;7.630;2022-11-04T01:39:51;3.85;;;2.90;;
7523;SDS011;3803;51.666;7.630;2022-11-04T01:40:11;3.17;;;2.70;;
7523;SDS011;3803;51.666;7.630;2022-11-04T01:40:35;2.83;;;2.53;;
7523;SDS011;3803;51.666;7.630;2022-11-04T01:40:57;3.00;;;2.70;;
7523;SDS011;3803;51.666;7.630;2022-11-04T01:41:24;3.00;;;2.80;;
7523;SDS011;3803;51.666;7.630;2022-11-04T01:41:50;3.05;;;2.67;;
7523;SDS011;3803;51.666;7.630;2022-11-04T01:42:12;3.00;;;2.63;;
7523;SDS011;3803;51.666;7.630;2022-11-04T01:42:34;3.00;;;2.60;;
7523;SDS011;3803;51.666;7.630;2022-11-04T01:42:54;2.67;;;2.47;;
7523;SDS011;3803;51.666;7.630;2022-11-04T01:43:16;2.80;;;2.50;;
7523;SDS011;3803;51.666;7.630;2022-11-04T01:45:11;2.80;;;2.60;;
7523;SDS011;3803;51.666;7.630;2022-11-04T01:45:33;2.85;;;2.60;;
7523;SDS011;3803;51.666;7.630;2022-11-04T01:45:57;3.00;;;2.70;;
7523;SDS011;3803;51.666;7.630;2022-11-04T01:46:58;4.60;;;2.80;;
7523;SDS011;3803;51.666;7.630;2022-11-04T01:47:24;4.60;;;2.80;;
7523;SDS011;3803;51.666;7.630;2022-11-04T01:47:55;3.58;;;2.65;;
7523;SDS011;3803;51.666;7.630;2022-11-04T01:48:26;3.22;;;2.50;;
7523;SDS011;3803;51.666;7.630;2022-11-04T01:48:49;3.42;;;2.60;;
7523;SDS011;3803;51.666;7.630;2022-11-04T01:49:53;4.20;;;2.97;;
7523;SDS011;3803;51.666;7.630;2022-11-04T01:50:22;3.70;;;2.70;;
7523;SDS011;3803;51.666;7.630;2022-11-04T01:50:46;2.90;;;2.60;;
7523;SDS011;3803;51.666;7.630;2022-11-04T01:51:09;3.40;;;2.70;;
7523;SDS011;3803;51.666;7.630;2022-11-04T01:51:31;3.38;;;2.53;;
7523;SDS011;3803;51.666;7.630;2022-11-04T01:51:57;2.90;;;2.58;;
7523;SDS011;3803;51.666;7.630;2022-11-04T01:52:24;3.13;;;2.50;;
7523;SDS011;3803;51.666;7.630;2022-11-04T01:53:08;3.38;;;2.30;;
7523;SDS011;3803;51.666;7.630;2022-11-04T01:53:35;3.42;;;2.30;;
7523;SDS011;3803;51.666;7.630;2022-11-04T01:53:58;2.90;;;2.67;;
7523;SDS011;3803;51.666;7.630;2022-11-04T01:54:21;3.00;;;2.70;;
7523;SDS011;3803;51.666;7.630;2022-11-04T01:54:42;3.20;;;2.63;;
7523;SDS011;3803;51.666;7.630;2022-11-04T01:55:09;3.42;;;2.40;;
7523;SDS011;3803;51.666;7.630;2022-11-04T01:55:35;3.30;;;2.60;;
7523;SDS011;3803;51.666;7.630;2022-11-04T01:56:02;3.00;;;2.60;;
7523;SDS011;3803;51.666;7.630;2022-11-04T01:56:31;3.08;;;2.50;;
7523;SDS011;3803;51.666;7.630;2022-11-04T01:56:52;2.88;;;2.55;;
7523;SDS011;3803;51.666;7.630;2022-11-04T01:57:16;2.90;;;2.60;;
7523;SDS011;3803;51.666;7.630;2022-11-04T01:57:40;2.60;;;2.40;;
7523;SDS011;3803;51.666;7.630;2022-11-04T01:58:05;2.80;;;2.47;;
7523;SDS011;3803;51.666;7.630;2022-11-04T01:58:30;2.83;;;2.53;;
7523;SDS011;3803;51.666;7.630;2022-11-04T01:58:54;3.13;;;2.80;;
7523;SDS011;3803;51.666;7.630;2022-11-04T01:59:20;2.90;;;2.60;;
7523;SDS011;3803;51.666;7.630;2022-11-04T01:59:45;3.05;;;2.78;;
7523;SDS011;3803;51.666;7.630;2022-11-04T02:00:06;3.17;;;2.88;;
7523;SDS011;3803;51.666;7.630;2022-11-04T02:00:34;3.95;;;3.10;;
7523;SDS011;3803;51.666;7.630;2022-11-04T02:00:57;4.00;;;3.00;;
7523;SDS011;3803;51.666;7.630;2022-11-04T02:01:18;4.15;;;3.13;;
7523;SDS011;3803;51.666;7.630;2022-11-04T02:01:38;3.40;;;3.10;;
7523;SDS011;3803;51.666;7.630;2022-11-04T02:01:59;3.77;;;3.47;;
7523;SDS011;3803;51.666;7.630;2022-11-04T02:02:20;3.50;;;3.20;;
7523;SDS011;3803;51.666;7.630;2022-11-04T02:02:55;3.55;;;3.25;;
7523;SDS011;3803;51.666;7.630;2022-11-04T02:03:30;4.50;;;3.10;;
7523;SDS011;3803;51.666;7.630;2022-11-04T02:03:55;5.18;;;3.05;;
7523;SDS011;3803;51.666;7.630;2022-11-04T02:04:41;3.97;;;3.00;;
7523;SDS011;3803;51.666;7.630;2022-11-04T02:05:03;3.10;;;2.80;;
7523;SDS011;3803;51.666;7.630;2022-11-04T02:05:24;3.30;;;2.90;;
7523;SDS011;3803;51.666;7.630;2022-11-04T02:05:47;3.20;;;2.90;;
7523;SDS011;3803;51.666;7.630;2022-11-04T02:06:10;3.45;;;3.15;;
7523;SDS011;3803;51.666;7.630;2022-11-04T02:06:30;3.90;;;3.50;;
7523;SDS011;3803;51.666;7.630;2022-11-04T02:06:55;4.00;;;3.60;;
7523;SDS011;3803;51.666;7.630;2022-11-04T02:07:18;3.72;;;3.33;;
7523;SDS011;3803;51.666;7.630;2022-11-04T02:07:39;3.58;;;3.28;;
7523;SDS011;3803;51.666;7.630;2022-11-04T02:08:00;3.95;;;3.40;;
7523;SDS011;3803;51.666;7.630;2022-11-04T02:08:23;4.10;;;3.70;;
7523;SDS011;3803;51.666;7.630;2022-11-04T02:08:44;4.05;;;3.65;;
7523;SDS011;3803;51.666;7.630;2022-11-04T02:09:06;3.95;;;3.65;;
7523;SDS011;3803;51.666;7.630;2022-11-04T02:09:27;3.80;;;3.50;;
7523;SDS011;3803;51.666;7.630;2022-11-04T02:09:50;4.10;;;3.70;;
7523;SDS011;3803;51.666;7.630;2022-11-04T02:10:11;3.90;;;3.50;;
7523;SDS011;3803;51.666;7.630;2022-11-04T02:10:32;4.13;;;3.58;;
7523;SDS011;3803;51.666;7.630;2022-11-04T02:11:00;4.25;;;3.60;;
7523;SDS011;3803;51.666;7.630;2022-11-04T02:11:22;4.03;;;3.60;;
7523;SDS011;3803;51.666;7.630;2022-11-04T02:12:02;5.00;;;3.80;;
7523;SDS011;3803;51.666;7.630;2022-11-04T02:12:41;5.60;;;3.97;;
7523;SDS011;3803;51.666;7.630;2022-11-04T02:13:10;4.15;;;3.70;;
7523;SDS011;3803;51.666;7.630;2022-11-04T02:13:32;4.40;;;4.00;;
7523;SDS011;3803;51.666;7.630;2022-11-04T02:13:54;4.85;;;4.35;;
7523;SDS011;3803;51.666;7.630;2022-11-04T02:14:14;5.00;;;4.40;;
7523;SDS011;3803;51.666;7.630;2022-11-04T02:14:36;4.55;;;3.95;;
7523;SDS011;3803;51.666;7.630;2022-11-04T02:14:57;4.38;;;3.72;;
7523;SDS011;3803;51.666;7.630;2022-11-04T02:15:20;4.10;;;3.70;;
7523;SDS011;3803;51.666;7.630;2022-11-04T02:16:30;4.22;;;3.65;;
7523;SDS011;3803;51.666;7.630;2022-11-04T02:17:31;4.88;;;4.15;;
7523;SDS011;3803;51.666;7.630;2022-11-04T02:18:13;4.53;;;4.05;;
7523;SDS011;3803;51.666;7.630;2022-11-04T02:22:06;5.93;;;4.15;;
7523;SDS011;3803;51.666;7.630;2022-11-04T02:23:05;5.60;;;4.03;;
7523;SDS011;3803;51.666;7.630;2022-11-04T02:25:26;5.18;;;4.10;;
7523;SDS011;3803;51.666;7.630;2022-11-04T02:27:42;5.00;;;4.50;;
7523;SDS011;3803;51.666;7.630;2022-11-04T02:30:32;5.35;;;4.80;;
7523;SDS011;3803;51.666;7.630;2022-11-04T02:31:07;5.75;;;4.57;;
7523;SDS011;3803;51.666;7.630;2022-11-04T02:32:58;5.18;;;4.30;;
7523;SDS011;3803;51.666;7.630;2022-11-04T02:34:32;4.65;;;4.25;;
7523;SDS011;3803;51.666;7.630;2022-11-04T02:35:37;5.90;;;4.50;;
7523;SDS011;3803;51.666;7.630;2022-11-04T02:36:04;6.15;;;4.30;;
7523;SDS011;3803;51.666;7.630;2022-11-04T02:36:34;6.50;;;4.40;;
7523;SDS011;3803;51.666;7.630;2022-11-04T02:40:40;5.00;;;4.50;;
7523;SDS011;3803;51.666;7.630;2022-11-04T02:40:42;4.40;;;4.00;;
7523;SDS011;3803;51.666;7.630;2022-11-04T02:41:12;5.20;;;4.70;;
7523;SDS011;3803;51.666;7.630;2022-11-04T02:41:41;4.93;;;4.53;;
7523;SDS011;3803;51.666;7.630;2022-11-04T02:42:36;5.70;;;4.63;;
7523;SDS011;3803;51.666;7.630;2022-11-04T02:43:48;5.22;;;4.72;;
7523;SDS011;3803;51.666;7.630;2022-11-04T02:44:19;5.45;;;4.80;;
7523;SDS011;3803;51.666;7.630;2022-11-04T02:44:47;5.30;;;4.80;;
7523;SDS011;3803;51.666;7.630;2022-11-04T02:46:04;7.00;;;4.70;;
7523;SDS011;3803;51.666;7.630;2022-11-04T02:46:44;6.93;;;4.80;;
7523;SDS011;3803;51.666;7.630;2022-11-04T02:47:14;5.00;;;4.60;;
7523;SDS011;3803;51.666;7.630;2022-11-04T02:47:41;4.80;;;4.40;;
7523;SDS011;3803;51.666;7.630;2022-11-04T02:48:54;7.50;;;5.00;;
7523;SDS011;3803;51.666;7.630;2022-11-04T02:49:24;6.78;;;5.00;;
7523;SDS011;3803;51.666;7.630;2022-11-04T02:49:59;6.10;;;5.05;;
7523;SDS011;3803;51.666;7.630;2022-11-04T02:50:31;6.90;;;4.97;;
7523;SDS011;3803;51.666;7.630;2022-11-04T02:51:20;5.77;;;4.70;;
7523;SDS011;3803;51.666;7.630;2022-11-04T02:51:49;4.80;;;4.30;;
7523;SDS011;3803;51.666;7.630;2022-11-04T02:52:29;5.00;;;4.40;;
7523;SDS011;3803;51.666;7.630;2022-11-04T02:53:09;5.25;;;4.60;;
7523;SDS011;3803;51.666;7.630;2022-11-04T02:53:36;5.65;;;5.10;;
7523;SDS011;3803;51.666;7.630;2022-11-04T02:54:08;5.60;;;5.10;;
7523;SDS011;3803;51.666;7.630;2022-11-04T02:54:36;4.80;;;4.40;;
7523;SDS011;3803;51.666;7.630;2022-11-04T02:55:19;4.80;;;4.40;;